Time;durP1;ratioP1;P1;durP2;ratioP2;P2;SDS_P1;SDS_P2;PMS_P1;PMS_P2;Temp;Humidity;BMP_temperature;BMP_pressure;BME280_temperature;BME280_humidity;BME280_pressure;Samples;Min_cycle;Max_cycle;Signal;HPM_P1;HPM_P2
2022/04/17 00:00:37;;;;;;;10.23;5.93;;;6.70;1.00;;;;;;5054847;28;20041;-74
2022/04/17 00:03:05;;;;;;;15.07;6.43;;;6.70;99.90;;;;;;5056175;28;20131;-76
2022/04/17 00:05:32;;;;;;;12.10;6.30;;;6.60;99.90;;;;;;5072193;28;20037;-75
2022/04/17 00:08:00;;;;;;;10.38;5.90;;;6.60;99.90;;;;;;5055295;28;20416;-76
2022/04/17 00:10:27;;;;;;;9.93;6.28;;;6.50;99.90;;;;;;5040668;28;20106;-76
2022/04/17 00:12:54;;;;;;;9.40;6.72;;;6.60;1.00;;;;;;5055591;28;20040;-74
2022/04/17 00:15:22;;;;;;;10.40;6.30;;;6.70;1.00;;;;;;5037098;28;20155;-76
2022/04/17 00:17:51;;;;;;;9.00;6.13;;;6.90;1.00;;;;;;5055376;28;20037;-76
2022/04/17 00:20:19;;;;;;;8.38;6.28;;;7.00;1.00;;;;;;5054495;28;20404;-75
2022/04/17 00:22:46;;;;;;;7.57;5.57;;;7.10;1.00;;;;;;5054385;28;20048;-76
2022/04/17 00:25:16;;;;;;;10.18;5.50;;;7.10;99.90;;;;;;5036833;28;20041;-75
2022/04/17 00:27:43;;;;;;;7.95;6.10;;;7.10;99.90;;;;;;5037214;28;20073;-74
2022/04/17 00:30:12;;;;;;;9.23;6.13;;;7.20;99.90;;;;;;5037003;28;20045;-75
2022/04/17 00:32:40;;;;;;;8.40;5.78;;;7.20;99.90;;;;;;5054858;28;20049;-74
2022/04/17 00:35:10;;;;;;;8.38;5.55;;;7.10;1.00;;;;;;5054679;28;20056;-76
2022/04/17 00:37:38;;;;;;;9.35;5.63;;;7.10;22.80;;;;;;5038440;28;20050;-73
2022/04/17 00:40:08;;;;;;;10.60;5.82;;;7.10;28.30;;;;;;4997448;28;20042;-74
2022/04/17 00:42:35;;;;;;;8.20;6.07;;;7.00;1.00;;;;;;4996638;28;20046;-74
2022/04/17 00:45:03;;;;;;;9.55;5.32;;;7.10;1.00;;;;;;5014954;28;20054;-76
2022/04/17 00:47:31;;;;;;;10.00;5.30;;;7.10;1.00;;;;;;5014741;28;20066;-76
2022/04/17 00:49:58;;;;;;;10.80;5.13;;;7.10;1.00;;;;;;5013190;28;20052;-77
2022/04/17 00:52:27;;;;;;;9.25;5.90;;;7.20;1.00;;;;;;5034560;28;20464;-75
2022/04/17 00:54:55;;;;;;;7.40;5.15;;;7.20;1.00;;;;;;5034722;28;20045;-74
2022/04/17 00:57:24;;;;;;;7.32;4.55;;;7.10;1.00;;;;;;5034256;28;20111;-75
2022/04/17 00:59:52;;;;;;;11.82;5.40;;;7.00;1.00;;;;;;5034067;28;20128;-75
2022/04/17 01:02:20;;;;;;;8.40;4.95;;;7.10;1.00;;;;;;5034575;28;20060;-76
2022/04/17 01:04:48;;;;;;;9.55;5.13;;;6.90;1.00;;;;;;5016516;28;20055;-76
2022/04/17 01:07:16;;;;;;;5.53;4.10;;;6.80;1.00;;;;;;5016676;28;20096;-76
2022/04/17 01:09:46;;;;;;;11.63;4.80;;;6.80;1.00;;;;;;5017226;28;20059;-75
2022/04/17 01:12:13;;;;;;;7.82;4.32;;;6.70;1.00;;;;;;5021603;28;20095;-75
2022/04/17 01:14:42;;;;;;;8.43;4.25;;;6.70;1.00;;;;;;5038262;28;20049;-74
2022/04/17 01:17:12;;;;;;;6.60;4.25;;;6.70;1.00;;;;;;5038961;28;20041;-74
2022/04/17 01:19:40;;;;;;;7.68;4.38;;;6.70;1.00;;;;;;5038630;28;20051;-76
2022/04/17 01:22:10;;;;;;;7.60;4.90;;;6.70;1.00;;;;;;5026966;28;20084;-76
2022/04/17 01:27:24;;;;;;;6.68;4.72;;;6.60;99.90;;;;;;5051311;28;20033;-75
2022/04/17 01:29:53;;;;;;;8.88;4.70;;;6.80;99.90;;;;;;5040395;28;20042;-75
2022/04/17 01:32:21;;;;;;;9.73;4.35;;;6.90;1.00;;;;;;5038665;28;20053;-75
2022/04/17 01:34:50;;;;;;;6.85;4.22;;;7.00;1.00;;;;;;5019981;28;20524;-76
2022/04/17 01:37:18;;;;;;;6.57;4.43;;;7.00;1.00;;;;;;5037510;28;20056;-75
2022/04/17 01:39:46;;;;;;;8.75;4.30;;;7.10;99.90;;;;;;5038120;28;20090;-75
2022/04/17 01:42:14;;;;;;;7.85;4.05;;;6.80;99.90;;;;;;5019575;28;20045;-74
2022/04/17 01:44:41;;;;;;;7.32;4.22;;;6.90;99.90;;;;;;5019904;28;20041;-75
2022/04/17 01:47:09;;;;;;;6.47;4.25;;;6.90;99.90;;;;;;5021185;28;20076;-75
2022/04/17 01:49:37;;;;;;;7.90;3.70;;;6.80;99.90;;;;;;5038479;28;20040;-74
2022/04/17 01:52:05;;;;;;;6.38;4.20;;;6.70;99.90;;;;;;5020692;28;20056;-75
2022/04/17 01:54:34;;;;;;;7.20;4.35;;;6.60;99.90;;;;;;5037290;28;20042;-76
2022/04/17 01:57:01;;;;;;;8.07;4.10;;;6.50;99.90;;;;;;5038207;28;20097;-75
2022/04/17 01:59:29;;;;;;;6.22;3.67;;;6.50;99.90;;;;;;5020876;28;20049;-75
2022/04/17 02:01:57;;;;;;;5.57;3.97;;;6.40;99.90;;;;;;5037768;28;20049;-76
2022/04/17 02:04:27;;;;;;;7.70;4.10;;;6.40;99.90;;;;;;5037730;28;20041;-74
2022/04/17 02:06:55;;;;;;;7.80;4.70;;;6.40;99.90;;;;;;5037669;28;20095;-76
2022/04/17 02:09:22;;;;;;;6.55;4.10;;;6.50;99.90;;;;;;5018588;28;20053;-75
2022/04/17 02:11:53;;;;;;;5.72;3.63;;;6.60;99.90;;;;;;5036844;28;20049;-75
2022/04/17 02:14:20;;;;;;;5.35;3.80;;;6.70;99.90;;;;;;5018744;28;20046;-76
2022/04/17 02:16:48;;;;;;;6.53;4.07;;;6.70;99.90;;;;;;5057270;28;20025;-77
2022/04/17 02:19:15;;;;;;;9.02;3.85;;;6.60;99.90;;;;;;5049727;28;20053;-76
2022/04/17 02:21:42;;;;;;;6.85;3.75;;;6.60;99.90;;;;;;5036020;28;20091;-73
2022/04/17 02:24:10;;;;;;;7.00;3.50;;;6.50;99.90;;;;;;5036010;28;20120;-76
2022/04/17 02:26:37;;;;;;;7.35;3.60;;;6.50;99.90;;;;;;5036646;28;20404;-75
2022/04/17 02:29:06;;;;;;;32.58;4.55;;;6.60;99.90;;;;;;5036441;28;20049;-75
2022/04/17 02:31:33;;;;;;;6.00;4.10;;;6.70;99.90;;;;;;5035704;28;20511;-76
2022/04/17 02:34:01;;;;;;;7.03;4.10;;;6.70;99.90;;;;;;5035882;28;20037;-76
2022/04/17 02:36:28;;;;;;;5.60;4.03;;;6.70;99.90;;;;;;5021608;28;20470;-76
2022/04/17 02:38:56;;;;;;;5.50;3.45;;;6.80;99.90;;;;;;5036015;28;20042;-76
2022/04/17 02:41:23;;;;;;;5.78;3.47;;;6.80;99.90;;;;;;5037200;28;20467;-76
2022/04/17 02:43:51;;;;;;;8.43;4.20;;;6.70;99.90;;;;;;5051694;28;20120;-76
2022/04/17 02:49:01;;;;;;;5.57;3.25;;;6.60;99.90;;;;;;5056516;28;20045;-76
2022/04/17 02:51:28;;;;;;;9.27;4.13;;;6.60;99.90;;;;;;5047320;28;20045;-76
2022/04/17 02:53:56;;;;;;;6.97;4.20;;;6.60;99.90;;;;;;5041158;28;20049;-75
2022/04/17 02:56:23;;;;;;;7.38;3.80;;;6.60;99.90;;;;;;5036140;28;20053;-75
2022/04/17 02:58:54;;;;;;;6.65;4.40;;;6.70;99.90;;;;;;5034719;28;20042;-76
2022/04/17 03:06:53;;;;;;;8.02;4.95;;;6.60;99.90;;;;;;5035786;28;20041;-75
2022/04/17 03:09:20;;;;;;;7.95;4.68;;;6.60;99.90;;;;;;5034087;28;20416;-75
2022/04/17 03:11:48;;;;;;;10.48;6.20;;;6.60;99.90;;;;;;5035440;28;20069;-77
2022/04/17 03:14:15;;;;;;;8.93;6.07;;;6.60;99.90;;;;;;5033664;28;20041;-77
2022/04/17 03:16:44;;;;;;;7.70;4.75;;;6.60;99.70;;;;;;5035133;28;20042;-76
2022/04/17 03:19:13;;;;;;;6.30;4.18;;;6.60;99.90;;;;;;5035516;28;20049;-75
2022/04/17 03:21:40;;;;;;;5.47;3.90;;;6.50;99.90;;;;;;5035226;28;20033;-76
2022/04/17 03:24:08;;;;;;;5.75;4.18;;;6.60;99.90;;;;;;5034167;28;20049;-76
2022/04/17 03:26:36;;;;;;;6.00;3.80;;;6.60;99.90;;;;;;5035415;28;20080;-76
2022/04/17 03:29:04;;;;;;;5.57;3.67;;;6.50;94.50;;;;;;5036217;28;20041;-76
2022/04/17 03:31:31;;;;;;;7.13;3.85;;;6.50;94.40;;;;;;5035587;28;20041;-75
2022/04/17 03:34:00;;;;;;;6.10;3.20;;;6.60;91.30;;;;;;5035114;28;20408;-75
2022/04/17 03:36:28;;;;;;;8.43;3.47;;;6.60;82.00;;;;;;5034458;28;20394;-75
2022/04/17 03:38:55;;;;;;;5.18;2.97;;;6.60;75.10;;;;;;5035464;28;20038;-74
2022/04/17 03:41:22;;;;;;;7.45;3.30;;;6.50;74.20;;;;;;5036367;28;20076;-74
2022/04/17 03:43:50;;;;;;;5.93;3.38;;;6.60;68.10;;;;;;5036081;28;20048;-75
2022/04/17 03:46:17;;;;;;;6.38;3.40;;;6.50;61.70;;;;;;5038557;28;20034;-76
2022/04/17 03:48:45;;;;;;;6.07;3.22;;;6.50;54.90;;;;;;5034632;28;20045;-76
2022/04/17 03:51:13;;;;;;;6.03;3.85;;;6.50;62.50;;;;;;5036053;28;20408;-76
2022/04/17 03:53:42;;;;;;;8.27;3.90;;;6.60;73.80;;;;;;5035893;28;20041;-76
2022/04/17 03:56:09;;;;;;;8.13;3.45;;;6.70;90.90;;;;;;5035903;28;20041;-74
2022/04/17 03:58:36;;;;;;;5.78;3.10;;;6.70;77.60;;;;;;5035485;28;20038;-76
2022/04/17 04:01:04;;;;;;;8.52;4.97;;;6.70;80.50;;;;;;5035710;28;20049;-75
2022/04/17 04:03:32;;;;;;;8.38;4.18;;;6.70;62.80;;;;;;5034035;28;20045;-77
2022/04/17 04:05:59;;;;;;;7.85;3.90;;;6.70;51.00;;;;;;5035972;28;20041;-73
2022/04/17 04:08:28;;;;;;;5.70;3.60;;;6.60;44.40;;;;;;5034856;28;20041;-75
2022/04/17 04:10:55;;;;;;;6.38;3.20;;;6.70;26.50;;;;;;5035076;28;20047;-77
2022/04/17 04:13:23;;;;;;;7.75;4.07;;;6.70;12.30;;;;;;5035324;28;20082;-74
2022/04/17 04:15:50;;;;;;;6.88;4.07;;;6.70;1.00;;;;;;5034368;28;20499;-75
2022/04/17 04:18:18;;;;;;;6.13;3.28;;;6.50;1.00;;;;;;5035472;28;20068;-75
2022/04/17 04:20:45;;;;;;;5.35;3.13;;;6.40;1.00;;;;;;5033976;28;20048;-76
2022/04/17 04:23:12;;;;;;;5.78;3.60;;;6.40;1.00;;;;;;5033347;28;20052;-74
2022/04/17 04:25:42;;;;;;;7.72;3.55;;;6.40;1.00;;;;;;5035528;28;20408;-75
2022/04/17 04:30:54;;;;;;;9.32;4.40;;;6.50;1.00;;;;;;5042841;28;20049;-75
2022/04/17 04:33:21;;;;;;;7.25;4.07;;;6.50;1.00;;;;;;5034179;28;20117;-76
2022/04/17 04:35:49;;;;;;;7.47;4.50;;;6.60;1.00;;;;;;5033509;28;20404;-76
2022/04/17 04:38:16;;;;;;;6.35;4.03;;;6.70;1.00;;;;;;5034449;28;20045;-76
2022/04/17 04:40:45;;;;;;;6.13;3.55;;;6.70;1.00;;;;;;5016800;28;20069;-76
2022/04/17 04:43:13;;;;;;;6.82;3.25;;;6.80;1.00;;;;;;5034465;28;20055;-75
2022/04/17 04:51:07;;;;;;;5.97;3.30;;;7.10;1.00;;;;;;5037492;28;20049;-75
2022/04/17 04:53:34;;;;;;;5.78;3.50;;;7.10;1.00;;;;;;5020093;28;20051;-76
2022/04/17 04:56:03;;;;;;;5.72;3.65;;;7.30;1.00;;;;;;5020825;28;20884;-76
2022/04/17 04:58:31;;;;;;;6.63;3.60;;;7.50;1.00;;;;;;5038589;28;20065;-75
2022/04/17 05:00:58;;;;;;;6.10;3.53;;;7.40;1.00;;;;;;5019856;28;20424;-76
2022/04/17 05:03:27;;;;;;;7.72;3.42;;;7.10;1.00;;;;;;5037487;28;20129;-76
2022/04/17 05:05:54;;;;;;;4.28;2.80;;;7.20;1.00;;;;;;5037737;28;20057;-77
2022/04/17 05:08:22;;;;;;;6.00;3.65;;;7.40;1.00;;;;;;5038443;28;20037;-76
2022/04/17 05:10:49;;;;;;;4.28;2.88;;;7.60;1.00;;;;;;5038130;28;20034;-75
2022/04/17 05:13:18;;;;;;;7.15;3.60;;;7.50;1.00;;;;;;5003961;28;20045;-77
2022/04/17 05:15:46;;;;;;;7.65;4.65;;;7.30;1.00;;;;;;5035445;28;20053;-76
2022/04/17 05:18:13;;;;;;;7.65;4.13;;;7.20;1.00;;;;;;5037799;28;20038;-77
2022/04/17 05:20:41;;;;;;;5.32;3.33;;;7.30;1.00;;;;;;5037224;28;20455;-77
2022/04/17 05:23:18;;;;;;;8.20;3.85;;;7.50;1.00;;;;;;5036978;28;20076;-77
2022/04/17 05:25:47;;;;;;;6.85;4.55;;;7.50;1.00;;;;;;5037269;28;20049;-77
2022/04/17 05:28:17;;;;;;;6.75;4.15;;;7.50;1.00;;;;;;5036991;28;20481;-75
2022/04/17 05:30:47;;;;;;;9.70;5.15;;;7.50;1.00;;;;;;5024896;28;20057;-77
2022/04/17 05:33:18;;;;;;;6.22;4.00;;;7.60;1.00;;;;;;5061013;28;20022;-77
2022/04/17 05:35:45;;;;;;;8.98;3.30;;;7.60;1.00;;;;;;5060152;28;20072;-76
2022/04/17 05:38:13;;;;;;;4.43;2.90;;;7.50;1.00;;;;;;5043022;28;20029;-77
2022/04/17 05:40:42;;;;;;;7.28;3.42;;;7.30;1.00;;;;;;5044051;28;20045;-77
2022/04/17 05:43:10;;;;;;;6.43;2.92;;;7.20;1.00;;;;;;5052515;28;20049;-75
2022/04/17 05:45:39;;;;;;;5.70;3.00;;;7.20;1.00;;;;;;5038558;28;20041;-77
2022/04/17 05:48:09;;;;;;;4.97;2.90;;;7.00;1.00;;;;;;5038786;28;20037;-77
2022/04/17 05:50:37;;;;;;;5.07;3.13;;;6.90;1.00;;;;;;5032551;28;20045;-76
2022/04/17 05:53:07;;;;;;;7.03;4.00;;;6.90;1.00;;;;;;5011538;28;20045;-77
2022/04/17 05:55:36;;;;;;;6.53;3.65;;;6.90;1.00;;;;;;5037495;28;20076;-77
2022/04/17 05:58:03;;;;;;;6.63;3.40;;;7.10;1.00;;;;;;5037483;28;20116;-76
2022/04/17 06:00:31;;;;;;;7.78;3.67;;;7.10;1.00;;;;;;5019097;28;20107;-76
2022/04/17 06:02:58;;;;;;;4.82;2.90;;;7.20;1.00;;;;;;5037796;28;20045;-77
2022/04/17 06:05:27;;;;;;;6.18;3.65;;;7.20;1.00;;;;;;5023693;28;20073;-75
2022/04/17 06:07:55;;;;;;;5.47;3.25;;;7.20;1.00;;;;;;5028821;28;20574;-77
2022/04/17 06:10:22;;;;;;;6.13;3.38;;;7.40;1.00;;;;;;5048401;28;20137;-77
2022/04/17 06:12:50;;;;;;;8.43;3.97;;;7.20;1.00;;;;;;5029683;28;20382;-76
2022/04/17 06:15:17;;;;;;;5.18;3.08;;;7.40;1.00;;;;;;5031631;28;20050;-76
2022/04/17 06:17:54;;;;;;;5.35;3.33;;;7.50;1.00;;;;;;5043971;28;20045;-76
2022/04/17 06:20:23;;;;;;;5.28;3.08;;;7.40;1.00;;;;;;5038833;28;20050;-76
2022/04/17 06:22:55;;;;;;;4.35;2.85;;;7.60;1.00;;;;;;5019347;28;20088;-76
2022/04/17 06:25:23;;;;;;;4.47;2.92;;;7.80;1.00;;;;;;5037699;28;20059;-76
2022/04/17 06:27:51;;;;;;;5.95;3.60;;;7.50;1.00;;;;;;5055930;28;20041;-78
2022/04/17 06:30:21;;;;;;;4.93;2.75;;;7.50;1.00;;;;;;5059103;28;20069;-77
2022/04/17 06:32:52;;;;;;;5.05;2.97;;;7.60;1.00;;;;;;5050271;28;20037;-75
2022/04/17 06:35:19;;;;;;;5.72;2.55;;;7.10;1.00;;;;;;5039706;28;20048;-76
2022/04/17 06:37:51;;;;;;;4.25;2.58;;;7.00;1.00;;;;;;5051847;28;20120;-75
2022/04/17 06:40:21;;;;;;;7.35;2.53;;;7.10;1.00;;;;;;5049778;28;20037;-77
2022/04/17 06:42:50;;;;;;;12.05;3.33;;;7.00;1.00;;;;;;5035696;28;20065;-76
2022/04/17 06:45:18;;;;;;;7.80;3.00;;;7.30;1.00;;;;;;5038309;28;20034;-76
2022/04/17 06:47:46;;;;;;;9.95;3.00;;;7.50;1.00;;;;;;5038011;28;20050;-75
2022/04/17 06:50:15;;;;;;;4.82;2.70;;;7.70;1.00;;;;;;5029109;28;20056;-76
2022/04/17 06:52:42;;;;;;;5.05;2.50;;;7.40;1.00;;;;;;5011662;28;20080;-76
2022/04/17 06:55:14;;;;;;;5.65;2.80;;;7.60;1.00;;;;;;5016110;28;20045;-77
2022/04/17 06:57:48;;;;;;;7.32;3.40;;;7.50;1.00;;;;;;5007438;28;20053;-75
2022/04/17 07:00:22;;;;;;;6.10;2.88;;;7.80;1.00;;;;;;5037219;28;20041;-77
2022/04/17 07:02:49;;;;;;;6.65;3.55;;;7.80;1.00;;;;;;5036313;28;20156;-76
2022/04/17 07:05:20;;;;;;;6.40;3.80;;;8.30;1.00;;;;;;5027205;28;20042;-76
2022/04/17 07:07:48;;;;;;;15.52;5.13;;;8.70;1.00;;;;;;5016035;28;20046;-76
2022/04/17 07:10:18;;;;;;;7.85;3.90;;;9.50;1.00;;;;;;4999157;28;20081;-75
2022/04/17 07:13:19;;;;;;;6.43;4.07;;;10.30;1.00;;;;;;4998052;28;20050;-76
2022/04/17 07:16:12;;;;;;;5.57;3.30;;;10.90;1.00;;;;;;5033479;28;20060;-75
2022/04/17 07:18:40;;;;;;;6.45;3.95;;;11.00;1.00;;;;;;5035603;28;20042;-75
2022/04/17 07:21:10;;;;;;;7.05;3.80;;;10.80;1.00;;;;;;5035113;28;20046;-76
2022/04/17 07:23:38;;;;;;;5.72;3.50;;;10.60;1.00;;;;;;5017593;28;20080;-76
2022/04/17 07:26:09;;;;;;;7.00;3.63;;;10.30;1.00;;;;;;5017374;28;20045;-76
2022/04/17 07:28:45;;;;;;;7.72;3.22;;;10.30;1.00;;;;;;5022987;28;20509;-76
2022/04/17 07:31:19;;;;;;;7.40;4.30;;;10.60;1.00;;;;;;5034176;28;20096;-77
2022/04/17 07:33:46;;;;;;;7.15;3.90;;;10.70;1.00;;;;;;5036396;28;20049;-76
2022/04/17 07:36:21;;;;;;;5.82;3.80;;;10.50;1.00;;;;;;5032809;28;20096;-77
2022/04/17 07:38:48;;;;;;;8.90;3.78;;;10.50;1.00;;;;;;5016831;28;20038;-75
2022/04/17 07:41:16;;;;;;;7.00;3.95;;;10.00;1.00;;;;;;5017337;28;20129;-76
2022/04/17 07:43:43;;;;;;;6.32;3.35;;;10.20;1.00;;;;;;5014152;28;20494;-75
2022/04/17 07:46:13;;;;;;;11.68;5.25;;;10.40;1.00;;;;;;4996510;28;20074;-75
2022/04/17 07:48:42;;;;;;;8.10;4.63;;;10.50;1.00;;;;;;5019796;28;20068;-77
2022/04/17 07:51:09;;;;;;;7.70;4.20;;;10.70;1.00;;;;;;5017135;28;20045;-75
2022/04/17 07:53:38;;;;;;;4.38;3.00;;;10.70;1.00;;;;;;5034167;28;20041;-76
2022/04/17 07:56:06;;;;;;;5.88;3.25;;;10.80;1.00;;;;;;5035371;28;20175;-75
2022/04/17 07:58:35;;;;;;;4.55;2.80;;;10.50;1.00;;;;;;5018555;28;20051;-76
2022/04/17 08:01:10;;;;;;;6.03;2.90;;;10.50;1.00;;;;;;5035997;28;20124;-75
2022/04/17 08:03:47;;;;;;;5.38;3.60;;;10.60;1.00;;;;;;5016616;28;20580;-76
2022/04/17 08:06:17;;;;;;;7.90;4.50;;;10.80;1.00;;;;;;5033976;28;20390;-76
2022/04/17 08:08:45;;;;;;;8.43;5.50;;;11.10;1.00;;;;;;5034167;28;20044;-75
2022/04/17 08:11:13;;;;;;;7.05;3.67;;;11.40;1.00;;;;;;5033741;28;20041;-75
2022/04/17 08:13:42;;;;;;;5.38;3.40;;;11.40;1.00;;;;;;5033535;28;20049;-76
2022/04/17 08:16:10;;;;;;;6.50;3.83;;;11.70;1.00;;;;;;5034330;28;20120;-76
2022/04/17 08:18:37;;;;;;;8.05;6.00;;;11.70;1.00;;;;;;5035007;28;20048;-75
2022/04/17 08:21:06;;;;;;;4.80;3.03;;;11.80;1.00;;;;;;5035660;28;20051;-76
2022/04/17 08:23:37;;;;;;;6.30;4.10;;;11.60;1.00;;;;;;5016008;28;20052;-76
2022/04/17 08:26:05;;;;;;;5.22;3.28;;;11.60;1.00;;;;;;5033729;28;20455;-76
2022/04/17 08:28:33;;;;;;;6.35;3.40;;;11.50;1.00;;;;;;5033738;28;20053;-75
2022/04/17 08:31:01;;;;;;;4.43;2.80;;;11.50;1.00;;;;;;5034938;28;20484;-76
2022/04/17 08:33:28;;;;;;;5.85;3.10;;;11.10;1.00;;;;;;5036064;28;20083;-75
2022/04/17 08:35:58;;;;;;;6.53;3.90;;;10.70;1.00;;;;;;5036725;28;20046;-74
2022/04/17 08:38:26;;;;;;;4.80;2.90;;;10.80;1.00;;;;;;5034806;28;20045;-77
2022/04/17 08:40:59;;;;;;;6.68;3.80;;;10.80;1.00;;;;;;5033742;28;20393;-75
2022/04/17 08:43:28;;;;;;;6.03;3.55;;;10.90;1.00;;;;;;5033957;28;20041;-77
2022/04/17 08:45:56;;;;;;;8.73;6.07;;;11.10;1.00;;;;;;5031160;28;20478;-76
2022/04/17 08:48:33;;;;;;;8.82;4.15;;;11.40;1.00;;;;;;5046362;28;20046;-76
2022/04/17 08:51:03;;;;;;;4.85;3.08;;;11.00;1.00;;;;;;5046447;28;20060;-76
2022/04/17 08:53:32;;;;;;;4.57;2.92;;;10.80;1.00;;;;;;5030512;28;20042;-76
2022/04/17 08:56:05;;;;;;;7.57;3.90;;;10.80;1.00;;;;;;5043923;28;20118;-76
2022/04/17 08:58:34;;;;;;;6.22;3.50;;;11.20;1.00;;;;;;5017052;28;20065;-75
2022/04/17 09:01:04;;;;;;;5.05;2.78;;;11.40;1.00;;;;;;5034566;28;20485;-75
2022/04/17 09:03:32;;;;;;;4.28;3.00;;;11.70;1.00;;;;;;5034445;28;20045;-76
2022/04/17 09:06:00;;;;;;;4.70;3.22;;;11.30;1.00;;;;;;5033553;28;20096;-76
2022/04/17 09:08:28;;;;;;;7.15;3.47;;;10.90;1.00;;;;;;5015895;28;20470;-77
2022/04/17 09:11:00;;;;;;;10.95;4.38;;;10.80;1.00;;;;;;5015436;28;20539;-75
2022/04/17 09:13:31;;;;;;;6.60;3.78;;;11.10;1.00;;;;;;5016077;28;20103;-76
2022/04/17 09:15:59;;;;;;;5.80;3.10;;;10.90;1.00;;;;;;5033179;28;20053;-75
2022/04/17 09:18:31;;;;;;;7.25;3.63;;;11.10;1.00;;;;;;5033254;28;20075;-75
2022/04/17 09:21:01;;;;;;;5.35;3.10;;;11.50;1.00;;;;;;5032629;28;20493;-75
2022/04/17 09:23:40;;;;;;;4.90;3.05;;;11.30;1.00;;;;;;5017837;28;20096;-76
2022/04/17 09:26:11;;;;;;;5.90;3.50;;;11.70;1.00;;;;;;5014096;28;20045;-75
2022/04/17 09:28:45;;;;;;;7.25;4.25;;;12.00;1.00;;;;;;5014011;28;20382;-77
2022/04/17 09:31:14;;;;;;;5.88;3.55;;;12.20;1.00;;;;;;5014310;28;20048;-76
2022/04/17 09:33:49;;;;;;;6.95;4.00;;;11.80;1.00;;;;;;5017324;28;20599;-75
2022/04/17 09:36:31;;;;;;;5.97;3.47;;;11.00;1.00;;;;;;5023848;28;20058;-75
2022/04/17 09:39:12;;;;;;;7.60;4.93;;;10.90;1.00;;;;;;4999695;28;20140;-76
2022/04/17 09:41:52;;;;;;;6.38;3.55;;;11.30;1.00;;;;;;5017393;28;20060;-76
2022/04/17 09:47:17;;;;;;;4.60;2.90;;;11.50;1.00;;;;;;5087620;27;20401;-76
2022/04/17 09:49:54;;;;;;;5.30;3.53;;;12.00;1.00;;;;;;5085951;28;20541;-76
2022/04/17 09:52:23;;;;;;;6.95;4.18;;;12.30;1.00;;;;;;5090161;28;20044;-76
2022/04/17 09:54:51;;;;;;;5.93;3.40;;;12.20;1.00;;;;;;5090612;28;20044;-75
2022/04/17 09:57:29;;;;;;;5.40;3.17;;;12.00;1.00;;;;;;5090612;28;20048;-75
2022/04/17 09:59:58;;;;;;;6.72;2.97;;;11.90;1.00;;;;;;5077743;28;20098;-78
2022/04/17 10:02:27;;;;;;;6.13;3.28;;;11.40;1.00;;;;;;5072223;28;20407;-77
2022/04/17 10:04:55;;;;;;;7.60;3.13;;;10.80;1.00;;;;;;5091248;28;20059;-77
2022/04/17 10:07:23;;;;;;;5.45;2.97;;;10.60;1.00;;;;;;5093317;28;20139;-77
2022/04/17 10:09:51;;;;;;;6.13;3.03;;;10.90;1.00;;;;;;5097644;28;20105;-78
2022/04/17 10:12:20;;;;;;;6.20;3.08;;;10.90;1.00;;;;;;5093375;28;20450;-76
2022/04/17 10:14:49;;;;;;;4.45;2.80;;;10.70;1.00;;;;;;5091171;28;20047;-77
2022/04/17 10:17:21;;;;;;;4.40;2.60;;;10.80;1.00;;;;;;5091444;28;20483;-79
2022/04/17 10:19:51;;;;;;;6.07;3.00;;;10.80;1.00;;;;;;5092460;28;20045;-77
2022/04/17 10:22:20;;;;;;;4.25;2.67;;;10.80;1.00;;;;;;5091583;28;20040;-78
2022/04/17 10:24:55;;;;;;;6.10;2.80;;;10.60;1.00;;;;;;5092398;28;20063;-78
2022/04/17 10:27:27;;;;;;;4.47;3.05;;;10.50;1.00;;;;;;5090967;28;20097;-79
2022/04/17 10:29:59;;;;;;;5.88;3.20;;;11.00;1.00;;;;;;5093613;28;20052;-78
2022/04/17 10:32:41;;;;;;;5.57;3.17;;;11.30;1.00;;;;;;5094918;28;20075;-79
2022/04/17 10:35:26;;;;;;;6.22;3.75;;;11.50;1.00;;;;;;5093842;28;20059;-79
2022/04/17 10:38:35;;;;;;;5.00;3.03;;;11.40;1.00;;;;;;5092886;28;20071;-78
2022/04/17 10:41:09;;;;;;;4.25;2.40;;;11.60;1.00;;;;;;5094947;28;20051;-78
2022/04/17 10:43:58;;;;;;;6.05;2.95;;;11.10;1.00;;;;;;5095159;28;20066;-78
2022/04/17 10:46:27;;;;;;;4.18;2.53;;;11.10;1.00;;;;;;5100251;28;20108;-78
2022/04/17 10:48:57;;;;;;;6.18;3.45;;;11.30;1.00;;;;;;5111275;28;20054;-78
2022/04/17 10:51:27;;;;;;;6.53;3.47;;;11.10;1.00;;;;;;5109766;28;20084;-78
2022/04/17 10:54:05;;;;;;;5.93;3.42;;;11.30;1.00;;;;;;5103430;28;20044;-77
2022/04/17 10:56:34;;;;;;;5.60;3.20;;;11.70;1.00;;;;;;5090517;28;20040;-78
2022/04/17 10:59:07;;;;;;;5.35;3.13;;;12.00;1.00;;;;;;5077161;28;20048;-78
2022/04/17 11:01:55;;;;;;;5.80;2.97;;;11.40;1.00;;;;;;5088586;28;20127;-78
2022/04/17 11:04:24;;;;;;;7.20;3.88;;;11.50;1.00;;;;;;5099445;28;20110;-78
2022/04/17 11:07:28;;;;;;;4.70;3.00;;;11.80;1.00;;;;;;5118637;28;20058;-77
2022/04/17 11:10:08;;;;;;;4.72;2.95;;;11.60;1.00;;;;;;5108980;28;20067;-77
2022/04/17 11:12:47;;;;;;;5.53;3.10;;;11.70;1.00;;;;;;5096432;28;20121;-76
2022/04/17 11:15:28;;;;;;;6.72;2.97;;;11.60;1.00;;;;;;5083417;28;20047;-77
2022/04/17 11:18:02;;;;;;;7.35;3.63;;;11.40;1.00;;;;;;5089842;28;20045;-77
2022/04/17 11:20:31;;;;;;;5.00;3.13;;;11.40;1.00;;;;;;5094277;28;20044;-77
2022/04/17 11:23:00;;;;;;;5.80;3.17;;;11.60;1.00;;;;;;5082611;28;20093;-77
2022/04/17 11:25:29;;;;;;;6.50;3.38;;;11.80;1.00;;;;;;5084744;28;20037;-77
2022/04/17 11:28:02;;;;;;;4.97;3.22;;;12.00;1.00;;;;;;5084403;28;20507;-78
2022/04/17 11:30:34;;;;;;;6.38;3.20;;;11.90;1.00;;;;;;5091396;28;20047;-77
2022/04/17 11:33:06;;;;;;;8.40;3.35;;;12.20;1.00;;;;;;5091653;28;20051;-76
2022/04/17 11:35:35;;;;;;;5.43;3.58;;;12.00;1.00;;;;;;5081533;28;20503;-78
2022/04/17 11:38:06;;;;;;;5.22;3.53;;;12.10;1.00;;;;;;5089384;28;20441;-78
2022/04/17 11:40:36;;;;;;;5.03;2.72;;;12.00;1.00;;;;;;5095637;28;20070;-78
2022/04/17 11:43:09;;;;;;;5.95;3.92;;;12.00;1.00;;;;;;5097190;28;20043;-78
2022/04/17 11:45:42;;;;;;;7.20;3.53;;;12.00;1.00;;;;;;5082801;28;20062;-78
2022/04/17 11:48:12;;;;;;;6.25;2.95;;;11.40;1.00;;;;;;5075879;28;20446;-79
2022/04/17 11:50:41;;;;;;;5.07;2.72;;;10.90;1.00;;;;;;5056921;28;20071;-76
2022/04/17 11:53:13;;;;;;;6.80;4.55;;;10.80;1.00;;;;;;5076634;28;20066;-78
2022/04/17 11:55:42;;;;;;;7.03;3.05;;;11.00;1.00;;;;;;5076342;28;20036;-77
2022/04/17 11:58:14;;;;;;;8.15;3.60;;;11.60;1.00;;;;;;5076912;28;20071;-78
2022/04/17 12:00:42;;;;;;;5.57;2.88;;;11.80;1.00;;;;;;5075885;28;20093;-81
2022/04/17 12:03:11;;;;;;;8.13;2.63;;;11.40;1.00;;;;;;5073746;28;20465;-79
2022/04/17 12:05:39;;;;;;;6.97;3.55;;;11.00;1.00;;;;;;5077371;28;20053;-78
2022/04/17 12:08:09;;;;;;;7.05;4.05;;;11.30;1.00;;;;;;5079637;28;20056;-76
2022/04/17 12:10:40;;;;;;;4.22;2.70;;;11.60;1.00;;;;;;5066266;28;20514;-77
2022/04/17 12:13:16;;;;;;;5.03;2.67;;;11.90;1.00;;;;;;5080941;28;20389;-80
2022/04/17 12:15:44;;;;;;;5.40;3.05;;;11.60;1.00;;;;;;5076721;28;20075;-79
2022/04/17 12:18:17;;;;;;;6.32;2.78;;;11.70;1.00;;;;;;5075889;28;20085;-77
2022/04/17 12:20:45;;;;;;;7.00;2.85;;;11.40;1.00;;;;;;5075915;28;20048;-77
2022/04/17 12:23:12;;;;;;;8.40;3.63;;;11.50;1.00;;;;;;5082453;28;20050;-77
2022/04/17 12:25:41;;;;;;;5.63;2.90;;;11.70;1.00;;;;;;5086461;28;20047;-79
2022/04/17 12:28:11;;;;;;;5.55;2.70;;;11.50;1.00;;;;;;5071801;28;20041;-80
2022/04/17 12:30:39;;;;;;;3.58;2.30;;;11.40;1.00;;;;;;5080527;28;20076;-83
2022/04/17 12:33:22;;;;;;;5.20;2.70;;;12.00;1.00;;;;;;5091656;28;20044;-80
2022/04/17 12:36:03;;;;;;;7.03;3.03;;;12.50;1.00;;;;;;5095124;28;20073;-81
2022/04/17 12:38:32;;;;;;;6.93;4.05;;;12.80;1.00;;;;;;5106839;28;20075;-81
2022/04/17 12:41:01;;;;;;;6.35;2.83;;;12.80;1.00;;;;;;5093841;28;20053;-81
2022/04/17 12:43:31;;;;;;;4.55;2.75;;;12.50;1.00;;;;;;5096735;28;20108;-83
2022/04/17 12:46:04;;;;;;;6.43;2.78;;;12.30;1.00;;;;;;5091986;28;20057;-80
2022/04/17 12:48:33;;;;;;;5.55;3.70;;;12.20;1.00;;;;;;5090004;28;20075;-78
2022/04/17 12:51:04;;;;;;;4.72;3.40;;;12.20;1.00;;;;;;5083953;28;20092;-79
2022/04/17 12:53:36;;;;;;;7.50;3.53;;;12.30;1.00;;;;;;5074864;28;20043;-79
2022/04/17 12:56:06;;;;;;;5.93;3.40;;;12.40;1.00;;;;;;5076282;28;20047;-79
2022/04/17 12:58:50;;;;;;;4.93;3.25;;;12.50;1.00;;;;;;5074580;28;20113;-79
2022/04/17 13:01:22;;;;;;;5.82;3.13;;;12.60;1.00;;;;;;5076087;28;20041;-78
2022/04/17 13:03:50;;;;;;;9.57;4.28;;;12.70;1.00;;;;;;5075516;28;20051;-79
2022/04/17 13:06:23;;;;;;;5.05;2.33;;;12.70;1.00;;;;;;5076196;28;20111;-78
2022/04/17 13:09:12;;;;;;;5.32;2.90;;;12.70;1.00;;;;;;5075445;28;20049;-81
2022/04/17 13:11:43;;;;;;;6.40;3.05;;;12.40;1.00;;;;;;5077189;28;20044;-81
2022/04/17 13:14:11;;;;;;;7.22;3.47;;;12.50;1.00;;;;;;5085308;28;20128;-76
2022/04/17 13:16:50;;;;;;;8.50;3.83;;;12.80;1.00;;;;;;5096273;28;20016;-81
2022/04/17 13:19:18;;;;;;;8.38;3.22;;;12.60;1.00;;;;;;5085323;28;20068;-78
2022/04/17 13:21:45;;;;;;;6.57;3.17;;;12.50;1.00;;;;;;5088750;28;20035;-81
2022/04/17 13:24:15;;;;;;;7.32;3.00;;;12.60;1.00;;;;;;5090013;28;20058;-77
2022/04/17 13:26:44;;;;;;;6.90;3.13;;;13.10;1.00;;;;;;5091561;28;20044;-80
2022/04/17 13:29:12;;;;;;;6.43;2.92;;;13.60;1.00;;;;;;5092035;28;20120;-81
2022/04/17 13:31:40;;;;;;;5.07;2.30;;;13.40;1.00;;;;;;5093215;28;20040;-79
2022/04/17 13:34:07;;;;;;;5.88;2.50;;;12.80;1.00;;;;;;5076148;28;20044;-80
2022/04/17 13:36:35;;;;;;;6.70;4.40;;;12.60;1.00;;;;;;5075118;28;20494;-80